Time;durP1;ratioP1;P1;durP2;ratioP2;P2;SDS_P1;SDS_P2;PMS_P1;PMS_P2;Temp;Humidity;BMP_temperature;BMP_pressure;BME280_temperature;BME280_humidity;BME280_pressure;Samples;Min_cycle;Max_cycle;Signal;HPM_P1;HPM_P2
2022/10/18 00:02:05;;;;;;;53.55;18.80;;;14.00;99.90;;;;;;5096297;28;20052;-75
2022/10/18 00:04:30;;;;;;;51.42;18.73;;;14.00;99.90;;;;;;5090034;28;20067;-76
2022/10/18 00:06:56;;;;;;;42.80;17.42;;;13.80;99.90;;;;;;5083773;28;20269;-76
2022/10/18 00:09:22;;;;;;;106.13;21.70;;;13.90;99.90;;;;;;5097197;28;20059;-76
2022/10/18 00:11:48;;;;;;;61.88;18.75;;;14.10;99.90;;;;;;5084910;28;20356;-77
2022/10/18 00:14:13;;;;;;;46.75;18.30;;;13.80;99.90;;;;;;5062029;28;20028;-77
2022/10/18 00:16:39;;;;;;;50.00;19.73;;;13.90;99.90;;;;;;5087018;28;20202;-77
2022/10/18 00:19:05;;;;;;;54.40;18.13;;;13.80;99.90;;;;;;5083060;28;20101;-80
2022/10/18 00:21:31;;;;;;;45.85;17.60;;;14.30;99.90;;;;;;5067445;28;20016;-81
2022/10/18 00:23:56;;;;;;;94.13;20.60;;;13.90;99.90;;;;;;5067198;28;20293;-79
2022/10/18 00:26:26;;;;;;;106.88;20.90;;;14.10;99.90;;;;;;5070993;28;20058;-79
2022/10/18 00:28:59;;;;;;;97.20;19.77;;;14.50;99.90;;;;;;5077559;28;20047;-78
2022/10/18 00:31:31;;;;;;;128.32;22.35;;;14.50;99.90;;;;;;5087508;28;20041;-78
2022/10/18 00:34:00;;;;;;;131.18;23.85;;;13.90;99.90;;;;;;5082429;28;20331;-79
2022/10/18 00:36:28;;;;;;;48.50;20.40;;;14.60;99.90;;;;;;5088190;28;20032;-77
2022/10/18 00:38:54;;;;;;;48.67;19.73;;;14.70;99.90;;;;;;5075298;28;20071;-76
2022/10/18 00:41:23;;;;;;;74.93;21.88;;;14.20;99.90;;;;;;5101988;28;20035;-77
2022/10/18 00:44:02;;;;;;;74.75;21.85;;;14.60;99.90;;;;;;5082382;28;20109;-81
2022/10/18 00:46:30;;;;;;;66.57;22.67;;;14.30;99.90;;;;;;5092595;28;20329;-80
2022/10/18 00:48:59;;;;;;;87.93;23.50;;;14.70;99.90;;;;;;5076784;28;20029;-79
2022/10/18 00:51:31;;;;;;;90.63;22.58;;;14.70;99.90;;;;;;5088137;28;20036;-79
2022/10/18 00:53:57;;;;;;;40.00;19.40;;;14.00;99.90;;;;;;5089437;28;20269;-80
2022/10/18 00:56:23;;;;;;;40.33;19.90;;;13.90;99.90;;;;;;5090353;28;20027;-78
2022/10/18 00:58:50;;;;;;;48.90;20.30;;;14.10;99.90;;;;;;5089184;28;20037;-77
2022/10/18 01:01:15;;;;;;;46.00;19.25;;;13.80;99.90;;;;;;5083835;28;20032;-76
2022/10/18 01:03:42;;;;;;;53.40;19.08;;;14.50;99.90;;;;;;5101125;28;20089;-78
2022/10/18 01:06:08;;;;;;;36.10;18.15;;;13.80;99.90;;;;;;5072301;28;20036;-76
2022/10/18 01:08:54;;;;;;;56.42;21.23;;;14.00;99.90;;;;;;5073713;28;20040;-76
2022/10/18 01:11:56;;;;;;;67.40;20.70;;;14.50;99.90;;;;;;5084511;28;20230;-75
2022/10/18 01:14:42;;;;;;;39.30;19.17;;;13.90;99.90;;;;;;5107100;28;20035;-76
2022/10/18 01:17:18;;;;;;;47.05;19.38;;;14.30;99.90;;;;;;5089513;28;20055;-78
2022/10/18 01:20:16;;;;;;;56.28;18.77;;;14.30;99.90;;;;;;5082850;28;20028;-77
2022/10/18 01:22:48;;;;;;;45.20;18.58;;;13.70;99.90;;;;;;5103866;28;20468;-77
2022/10/18 01:25:55;;;;;;;36.25;17.80;;;14.00;99.90;;;;;;5092018;28;20039;-78
2022/10/18 01:28:49;;;;;;;29.50;16.75;;;14.10;99.90;;;;;;5081013;28;20032;-79
2022/10/18 01:31:20;;;;;;;55.30;19.08;;;14.10;99.90;;;;;;5086590;28;20041;-78
2022/10/18 01:33:57;;;;;;;59.95;19.50;;;13.90;99.90;;;;;;5092067;28;20035;-83
2022/10/18 01:36:35;;;;;;;50.72;19.20;;;13.90;99.90;;;;;;5083200;28;20080;-78
2022/10/18 01:39:05;;;;;;;45.90;17.27;;;13.80;99.90;;;;;;5088454;28;20081;-76
2022/10/18 01:41:32;;;;;;;57.03;19.48;;;14.10;99.90;;;;;;5104955;28;20040;-78
2022/10/18 01:44:03;;;;;;;52.80;20.05;;;14.00;99.90;;;;;;5098289;28;20113;-80
2022/10/18 01:46:29;;;;;;;47.38;18.05;;;14.20;99.90;;;;;;5082639;28;20090;-78
2022/10/18 01:48:56;;;;;;;47.60;18.35;;;14.20;99.90;;;;;;5108961;28;20084;-78
2022/10/18 01:51:27;;;;;;;37.78;17.05;;;13.50;99.90;;;;;;5085604;28;20103;-78
2022/10/18 01:53:53;;;;;;;61.47;19.98;;;13.90;99.90;;;;;;5107016;28;20046;-78
2022/10/18 01:56:56;;;;;;;95.75;21.25;;;13.80;99.90;;;;;;5076176;28;20110;-74
2022/10/18 01:59:56;;;;;;;102.70;22.00;;;14.00;99.90;;;;;;5105561;28;20051;-77
2022/10/18 02:02:54;;;;;;;97.97;22.25;;;14.00;99.90;;;;;;5067628;28;20045;-78
2022/10/18 02:05:37;;;;;;;107.38;22.95;;;13.60;99.90;;;;;;5092248;28;20071;-82
2022/10/18 02:08:33;;;;;;;111.50;23.20;;;14.30;99.90;;;;;;5100716;28;20318;-79
2022/10/18 02:11:04;;;;;;;53.17;20.50;;;14.20;99.90;;;;;;5094100;28;20038;-75
2022/10/18 02:13:36;;;;;;;190.65;27.20;;;14.20;99.90;;;;;;5094998;28;20027;-82
2022/10/18 02:16:17;;;;;;;183.57;24.27;;;14.10;99.90;;;;;;5082890;28;20032;-79
2022/10/18 02:18:57;;;;;;;214.48;25.88;;;13.90;99.90;;;;;;5103899;28;20054;-82
2022/10/18 02:21:27;;;;;;;202.80;25.77;;;14.00;99.90;;;;;;5077865;28;20095;-77
2022/10/18 02:23:53;;;;;;;214.60;26.75;;;13.70;99.90;;;;;;5099858;28;20036;-77
2022/10/18 02:26:19;;;;;;;181.80;25.67;;;14.40;99.90;;;;;;5085075;28;20046;-81
2022/10/18 02:28:45;;;;;;;127.65;23.58;;;14.20;99.90;;;;;;5088365;28;20028;-79
2022/10/18 02:31:29;;;;;;;95.60;20.15;;;13.80;99.90;;;;;;5088072;28;20041;-77
2022/10/18 02:34:04;;;;;;;174.40;25.23;;;14.40;99.90;;;;;;5095622;28;20039;-79
2022/10/18 02:36:40;;;;;;;75.10;19.60;;;14.30;99.90;;;;;;5090240;28;20035;-77
2022/10/18 02:39:13;;;;;;;71.15;18.33;;;13.80;99.90;;;;;;5089807;28;20237;-77
2022/10/18 02:41:39;;;;;;;90.45;18.60;;;13.80;99.90;;;;;;5109944;28;20042;-76
2022/10/18 02:44:05;;;;;;;89.30;19.25;;;13.70;99.90;;;;;;5090240;28;20095;-78
2022/10/18 02:46:30;;;;;;;178.95;22.88;;;14.30;99.90;;;;;;5098818;28;20261;-76
2022/10/18 02:48:56;;;;;;;65.75;17.67;;;13.60;99.90;;;;;;5093973;28;20023;-79
2022/10/18 02:51:22;;;;;;;46.53;16.27;;;13.80;99.90;;;;;;5089652;28;20039;-78
2022/10/18 02:53:48;;;;;;;97.30;18.92;;;14.40;99.90;;;;;;5075643;28;20038;-79
2022/10/18 02:56:13;;;;;;;43.10;15.82;;;14.40;99.90;;;;;;5078994;28;20032;-78
2022/10/18 02:58:39;;;;;;;99.35;19.85;;;13.90;99.90;;;;;;5093795;28;20039;-78
2022/10/18 03:01:05;;;;;;;62.90;17.42;;;14.10;99.90;;;;;;5079302;28;20047;-78
2022/10/18 03:03:30;;;;;;;59.63;16.50;;;13.70;99.90;;;;;;5087650;28;20115;-78
2022/10/18 03:05:56;;;;;;;91.25;19.30;;;14.30;99.90;;;;;;5063999;28;20015;-77
2022/10/18 03:08:21;;;;;;;223.93;25.20;;;14.30;99.90;;;;;;5069044;28;20099;-77
2022/10/18 03:10:47;;;;;;;163.93;21.13;;;13.70;99.90;;;;;;5085478;28;20036;-77
2022/10/18 03:13:13;;;;;;;170.80;22.13;;;14.20;99.90;;;;;;5083054;28;20031;-77
2022/10/18 03:15:39;;;;;;;150.00;20.63;;;14.10;99.90;;;;;;5077225;28;20393;-77
2022/10/18 03:18:05;;;;;;;202.45;23.83;;;13.90;99.90;;;;;;5073536;28;20347;-78
2022/10/18 03:20:30;;;;;;;173.63;24.08;;;13.70;99.90;;;;;;5101319;28;20408;-79
2022/10/18 03:22:56;;;;;;;150.13;22.70;;;14.30;99.90;;;;;;5074262;28;20123;-78
2022/10/18 03:25:22;;;;;;;190.27;23.95;;;14.30;99.90;;;;;;5110229;28;20027;-78
2022/10/18 03:27:47;;;;;;;107.13;19.25;;;13.90;99.90;;;;;;5064698;28;20095;-78
2022/10/18 03:30:13;;;;;;;129.20;20.40;;;13.70;99.90;;;;;;5087722;28;20077;-78
2022/10/18 03:32:39;;;;;;;35.65;15.32;;;14.30;99.90;;;;;;5079113;28;20032;-78
2022/10/18 03:35:06;;;;;;;94.15;18.70;;;13.70;99.90;;;;;;5100217;28;20376;-78
2022/10/18 03:37:32;;;;;;;93.35;18.83;;;14.20;99.90;;;;;;5093163;28;20102;-78
2022/10/18 03:39:58;;;;;;;45.03;16.30;;;13.70;99.90;;;;;;5084261;28;20055;-78
2022/10/18 03:42:24;;;;;;;39.22;15.35;;;13.70;99.90;;;;;;5100688;28;20048;-77
2022/10/18 03:44:49;;;;;;;36.38;15.35;;;14.20;99.90;;;;;;5087563;28;20027;-77
2022/10/18 03:47:15;;;;;;;120.03;20.05;;;13.80;99.90;;;;;;5068267;28;20048;-78
2022/10/18 03:49:41;;;;;;;121.70;20.50;;;13.70;99.90;;;;;;5082637;28;20198;-79
2022/10/18 03:52:07;;;;;;;135.50;20.35;;;13.90;99.90;;;;;;5100922;28;20200;-78
2022/10/18 03:54:32;;;;;;;134.82;21.08;;;13.80;99.90;;;;;;5058220;28;20505;-78
2022/10/18 03:56:58;;;;;;;136.27;21.02;;;14.10;99.90;;;;;;5106523;28;20312;-78
2022/10/18 03:59:24;;;;;;;38.05;16.15;;;13.90;99.90;;;;;;5061997;28;20376;-77
2022/10/18 04:01:49;;;;;;;79.32;18.65;;;14.10;99.90;;;;;;5083106;28;20410;-77
2022/10/18 04:04:15;;;;;;;103.30;19.63;;;14.00;99.90;;;;;;5079995;28;20034;-77
2022/10/18 04:06:41;;;;;;;89.20;19.13;;;14.10;99.90;;;;;;5092948;28;20016;-77
2022/10/18 04:09:07;;;;;;;38.33;15.15;;;13.50;99.90;;;;;;5101226;28;20063;-77
2022/10/18 04:11:33;;;;;;;53.78;16.50;;;13.80;99.90;;;;;;5084503;28;20283;-77
2022/10/18 04:13:58;;;;;;;82.72;17.92;;;14.00;99.90;;;;;;5096231;28;20127;-76
2022/10/18 04:16:24;;;;;;;50.17;16.92;;;14.00;99.90;;;;;;5053171;28;20058;-76
2022/10/18 04:18:50;;;;;;;131.70;20.27;;;13.90;99.90;;;;;;5105118;28;20042;-77
2022/10/18 04:21:16;;;;;;;45.92;16.92;;;14.10;99.90;;;;;;5070927;28;20042;-76
2022/10/18 04:23:41;;;;;;;35.22;16.27;;;13.50;99.90;;;;;;5074668;28;20043;-76
2022/10/18 04:26:07;;;;;;;63.47;18.38;;;14.10;99.90;;;;;;5087899;28;20219;-76
2022/10/18 04:28:34;;;;;;;62.75;18.00;;;13.60;99.90;;;;;;5074893;28;20253;-77
2022/10/18 04:31:00;;;;;;;42.60;16.38;;;13.50;99.90;;;;;;5101386;28;20024;-77
2022/10/18 04:33:26;;;;;;;58.80;16.67;;;13.90;99.90;;;;;;5072647;28;20475;-78
2022/10/18 04:35:52;;;;;;;73.45;17.13;;;14.00;99.90;;;;;;5101365;28;20033;-77
2022/10/18 04:38:18;;;;;;;33.90;15.45;;;14.00;99.90;;;;;;5071597;28;20043;-77
2022/10/18 04:40:44;;;;;;;60.10;17.10;;;13.80;99.90;;;;;;5098442;28;20310;-77
2022/10/18 04:43:10;;;;;;;41.28;15.57;;;14.00;99.90;;;;;;5105964;28;20095;-76
2022/10/18 04:45:36;;;;;;;95.93;18.10;;;14.00;99.90;;;;;;5098277;28;20357;-78
2022/10/18 04:48:02;;;;;;;121.53;17.67;;;13.90;99.90;;;;;;5097238;28;20067;-78
2022/10/18 04:50:27;;;;;;;66.13;16.25;;;13.80;99.90;;;;;;5102574;28;20028;-77
2022/10/18 04:52:53;;;;;;;67.10;16.33;;;13.80;99.90;;;;;;5111167;28;20031;-77
2022/10/18 04:55:20;;;;;;;79.20;17.00;;;13.30;99.90;;;;;;5071222;28;20089;-77
2022/10/18 04:57:45;;;;;;;48.00;15.13;;;13.60;99.90;;;;;;5094658;28;20031;-78
2022/10/18 05:00:12;;;;;;;56.28;15.23;;;13.20;99.90;;;;;;5070361;28;20069;-78
2022/10/18 05:02:37;;;;;;;52.05;15.10;;;13.20;99.90;;;;;;5065704;28;20338;-78
2022/10/18 05:05:04;;;;;;;37.25;14.50;;;13.60;99.90;;;;;;5095856;28;20036;-79
2022/10/18 05:07:30;;;;;;;119.93;17.77;;;13.20;99.90;;;;;;5088541;28;20024;-78
2022/10/18 05:09:55;;;;;;;79.28;16.75;;;13.20;99.90;;;;;;5078481;28;20103;-78
2022/10/18 05:12:21;;;;;;;43.50;15.23;;;13.40;99.90;;;;;;5077839;28;20247;-78
2022/10/18 05:14:47;;;;;;;48.00;15.15;;;13.20;99.90;;;;;;5101893;28;20058;-79
2022/10/18 05:17:13;;;;;;;28.90;13.95;;;13.50;99.90;;;;;;5091063;28;20039;-78
2022/10/18 05:19:39;;;;;;;44.78;15.50;;;13.20;99.90;;;;;;5072224;28;20210;-79
2022/10/18 05:22:04;;;;;;;69.63;16.45;;;13.20;99.90;;;;;;5059466;28;20039;-78
2022/10/18 05:24:30;;;;;;;48.05;15.60;;;13.50;99.90;;;;;;5105217;28;20056;-77
2022/10/18 05:26:57;;;;;;;53.08;15.48;;;13.10;99.90;;;;;;5093467;28;20187;-77
2022/10/18 05:29:22;;;;;;;67.15;16.05;;;13.50;99.90;;;;;;5102047;28;20115;-76
2022/10/18 05:31:49;;;;;;;119.18;17.05;;;13.50;99.90;;;;;;5105097;28;20031;-78
2022/10/18 05:34:15;;;;;;;59.80;14.88;;;13.50;99.90;;;;;;5083936;28;20261;-79
2022/10/18 05:36:41;;;;;;;93.75;16.30;;;13.10;99.90;;;;;;5090136;28;20020;-78
2022/10/18 05:39:06;;;;;;;91.20;16.75;;;13.40;99.90;;;;;;5069736;28;20062;-78
2022/10/18 05:41:32;;;;;;;68.10;15.02;;;13.00;99.90;;;;;;5089244;28;20043;-78
2022/10/18 05:44:03;;;;;;;128.88;16.58;;;12.90;99.90;;;;;;5093475;28;20036;-78
2022/10/18 05:46:29;;;;;;;133.05;17.00;;;13.40;99.90;;;;;;5099336;28;20036;-77
2022/10/18 05:48:54;;;;;;;157.05;18.98;;;12.90;99.90;;;;;;5094532;28;20108;-78
2022/10/18 05:51:20;;;;;;;151.05;18.15;;;12.90;99.90;;;;;;5072369;28;20375;-78
2022/10/18 05:53:46;;;;;;;108.85;16.65;;;12.80;99.90;;;;;;5071972;28;20043;-77
2022/10/18 05:56:13;;;;;;;198.30;18.27;;;13.20;99.90;;;;;;5097088;28;20220;-78
2022/10/18 05:58:39;;;;;;;235.77;21.52;;;13.10;99.90;;;;;;5097259;28;20329;-78
2022/10/18 06:01:05;;;;;;;172.40;17.50;;;12.90;99.90;;;;;;5085844;28;20027;-78
2022/10/18 06:03:31;;;;;;;147.10;17.83;;;12.90;99.90;;;;;;5100842;28;20084;-78
2022/10/18 06:06:07;;;;;;;166.82;17.20;;;12.70;99.90;;;;;;5087049;28;20035;-78
2022/10/18 06:08:34;;;;;;;105.63;14.07;;;12.80;99.90;;;;;;5111095;28;20038;-77
2022/10/18 06:11:08;;;;;;;132.60;16.88;;;13.00;99.90;;;;;;5084671;28;20085;-78
2022/10/18 06:13:34;;;;;;;104.90;15.23;;;13.00;99.90;;;;;;5101270;28;20030;-77
2022/10/18 06:15:59;;;;;;;74.15;12.40;;;12.50;99.90;;;;;;5087858;28;20322;-78
2022/10/18 06:18:25;;;;;;;76.57;12.45;;;12.60;99.90;;;;;;5079826;28;20048;-77
2022/10/18 06:20:58;;;;;;;112.13;14.18;;;12.70;99.90;;;;;;5051726;28;20099;-79
2022/10/18 06:23:28;;;;;;;90.57;12.95;;;12.80;99.90;;;;;;5097306;28;20077;-76
2022/10/18 06:26:01;;;;;;;93.85;12.80;;;12.70;99.90;;;;;;5084487;28;20110;-78
2022/10/18 06:28:28;;;;;;;76.28;13.27;;;12.50;99.90;;;;;;5095585;28;20034;-78
2022/10/18 06:30:54;;;;;;;172.10;16.52;;;12.80;99.90;;;;;;5073819;28;20040;-77
2022/10/18 06:33:20;;;;;;;147.52;15.20;;;12.80;99.90;;;;;;5101296;28;20342;-77
2022/10/18 06:35:55;;;;;;;183.40;15.65;;;12.50;99.90;;;;;;5072435;28;20024;-76
2022/10/18 06:38:21;;;;;;;195.48;16.65;;;12.70;99.90;;;;;;5109352;28;20357;-77
2022/10/18 06:40:47;;;;;;;110.07;13.65;;;12.40;99.90;;;;;;5077627;28;20094;-77
2022/10/18 06:43:13;;;;;;;138.68;13.60;;;12.80;99.90;;;;;;5068187;28;20047;-75
2022/10/18 06:45:38;;;;;;;140.98;15.40;;;12.80;99.90;;;;;;5068608;28;20036;-76
2022/10/18 06:48:04;;;;;;;97.63;10.75;;;12.70;99.90;;;;;;5084682;28;20085;-76
2022/10/18 06:50:30;;;;;;;89.65;11.77;;;12.20;99.90;;;;;;5051074;28;20032;-78
2022/10/18 06:52:56;;;;;;;131.48;13.45;;;12.70;99.90;;;;;;5082494;28;20326;-77
2022/10/18 06:55:21;;;;;;;173.65;15.25;;;12.30;99.90;;;;;;5071938;28;20031;-78
2022/10/18 06:57:47;;;;;;;89.45;10.98;;;12.20;99.90;;;;;;5097788;28;20040;-78
2022/10/18 07:00:13;;;;;;;65.63;9.60;;;12.60;99.90;;;;;;5083612;28;20035;-77
2022/10/18 07:02:40;;;;;;;89.78;11.60;;;12.70;99.90;;;;;;5080752;28;20036;-76
2022/10/18 07:05:07;;;;;;;147.02;14.45;;;12.70;99.90;;;;;;5067727;28;20027;-77
2022/10/18 07:07:32;;;;;;;64.00;11.57;;;12.40;99.90;;;;;;5066700;28;20023;-76
2022/10/18 07:09:58;;;;;;;53.20;9.95;;;12.40;99.90;;;;;;5083638;28;20039;-77
2022/10/18 07:12:24;;;;;;;117.80;12.75;;;12.40;99.90;;;;;;5089114;28;20100;-78
2022/10/18 07:14:49;;;;;;;80.22;11.15;;;12.30;99.90;;;;;;5061628;28;20112;-77
2022/10/18 07:17:15;;;;;;;97.28;11.48;;;12.50;99.90;;;;;;5075745;28;20039;-78
2022/10/18 07:19:41;;;;;;;76.10;9.88;;;12.20;99.90;;;;;;5074554;28;20036;-78
2022/10/18 07:22:06;;;;;;;36.05;9.07;;;12.20;99.90;;;;;;5092506;28;20066;-77
2022/10/18 07:24:32;;;;;;;52.17;9.27;;;12.40;99.90;;;;;;5069247;28;20031;-78
2022/10/18 07:26:58;;;;;;;86.70;12.18;;;12.60;99.90;;;;;;5093601;28;20039;-78
2022/10/18 07:29:23;;;;;;;46.05;10.18;;;12.30;99.90;;;;;;5091847;28;20032;-78
2022/10/18 07:31:49;;;;;;;67.90;10.95;;;12.40;99.90;;;;;;5093906;28;20653;-78
2022/10/18 07:34:15;;;;;;;60.05;10.73;;;12.30;99.90;;;;;;5087564;28;20040;-78
2022/10/18 07:36:41;;;;;;;28.50;9.45;;;12.50;99.90;;;;;;5083568;28;20037;-78
2022/10/18 07:39:06;;;;;;;24.10;8.60;;;12.50;99.90;;;;;;5077425;28;20064;-78
2022/10/18 07:41:33;;;;;;;26.88;9.90;;;12.60;99.90;;;;;;5065294;28;20040;-79
2022/10/18 07:43:59;;;;;;;38.50;10.40;;;13.00;99.90;;;;;;5089590;28;20226;-79
2022/10/18 07:46:25;;;;;;;34.28;9.98;;;12.60;99.90;;;;;;5101493;28;20063;-78
2022/10/18 07:48:51;;;;;;;25.63;9.82;;;12.40;99.90;;;;;;5100869;28;20055;-78
2022/10/18 07:51:19;;;;;;;16.98;9.40;;;13.00;99.90;;;;;;5084345;28;20039;-79
2022/10/18 07:53:44;;;;;;;17.95;9.63;;;13.00;99.90;;;;;;5084571;28;20103;-78
2022/10/18 07:56:15;;;;;;;13.77;8.95;;;13.10;99.90;;;;;;5067940;28;20085;-77
2022/10/18 07:58:46;;;;;;;20.70;8.85;;;13.20;99.90;;;;;;5100828;28;20110;-77
2022/10/18 08:01:13;;;;;;;16.25;8.70;;;13.30;99.90;;;;;;5084424;28;20051;-77
2022/10/18 08:03:40;;;;;;;14.10;9.00;;;12.80;99.90;;;;;;5067330;28;20028;-77
2022/10/18 08:06:09;;;;;;;12.00;7.80;;;13.10;99.90;;;;;;5084371;28;20052;-78
2022/10/18 08:08:37;;;;;;;14.05;7.50;;;13.60;99.90;;;;;;5100233;28;20047;-76
2022/10/18 08:11:05;;;;;;;13.88;6.97;;;13.10;99.90;;;;;;5083407;28;20188;-77
2022/10/18 08:13:31;;;;;;;14.13;6.63;;;13.60;99.90;;;;;;5097572;28;20281;-78
2022/10/18 08:16:05;;;;;;;13.73;6.65;;;13.50;99.90;;;;;;5089468;28;20097;-78
2022/10/18 08:18:31;;;;;;;9.93;5.55;;;13.90;99.90;;;;;;5064096;28;20398;-76
2022/10/18 08:20:59;;;;;;;8.40;5.00;;;14.10;99.90;;;;;;5081643;28;20028;-77
2022/10/18 08:23:25;;;;;;;8.07;4.20;;;13.90;99.90;;;;;;5083025;28;20078;-77
2022/10/18 08:25:51;;;;;;;5.53;4.28;;;14.30;99.90;;;;;;5099168;28;20032;-77
2022/10/18 08:28:16;;;;;;;8.25;4.43;;;14.10;99.90;;;;;;5099535;28;20226;-77
2022/10/18 08:30:42;;;;;;;8.15;4.05;;;14.00;99.90;;;;;;5082520;28;20043;-77
2022/10/18 08:33:08;;;;;;;6.97;4.43;;;14.40;99.90;;;;;;5065557;28;20113;-78
2022/10/18 08:35:34;;;;;;;9.68;4.50;;;14.70;99.90;;;;;;5082387;28;20345;-76
2022/10/18 08:38:00;;;;;;;8.45;4.45;;;14.20;99.90;;;;;;5082740;28;20099;-76
2022/10/18 08:40:26;;;;;;;6.93;4.60;;;14.30;99.90;;;;;;5082940;28;20083;-76
2022/10/18 08:42:56;;;;;;;5.60;4.13;;;14.70;99.90;;;;;;5099207;28;20196;-75
2022/10/18 08:45:23;;;;;;;6.40;4.22;;;14.60;99.90;;;;;;5099175;28;20035;-76
2022/10/18 08:47:52;;;;;;;9.07;4.63;;;14.80;99.90;;;;;;5099031;28;20204;-77
2022/10/18 08:50:25;;;;;;;7.53;4.70;;;14.80;99.90;;;;;;5066390;28;20040;-75
2022/10/18 08:53:02;;;;;;;10.45;4.18;;;14.80;99.90;;;;;;5082311;28;20039;-74
2022/10/18 08:55:43;;;;;;;10.02;3.95;;;14.20;99.90;;;;;;5099369;28;20047;-76
2022/10/18 08:58:28;;;;;;;10.15;4.40;;;14.40;99.90;;;;;;5082220;28;20044;-76
2022/10/18 09:01:12;;;;;;;9.20;4.60;;;13.90;99.90;;;;;;5081929;28;20024;-76
2022/10/18 09:03:53;;;;;;;8.37;4.27;;;14.40;99.90;;;;;;5098903;28;20036;-76
2022/10/18 09:06:32;;;;;;;10.80;3.28;;;14.50;99.90;;;;;;5099419;28;20459;-74
2022/10/18 09:09:46;;;;;;;8.45;3.90;;;14.60;99.90;;;;;;5098664;28;20055;-78
2022/10/18 09:12:37;;;;;;;9.75;3.47;;;14.70;99.90;;;;;;5041234;28;20035;-77
2022/10/18 09:15:29;;;;;;;7.20;3.60;;;15.10;99.90;;;;;;5098869;28;20036;-77
2022/10/18 09:18:06;;;;;;;7.28;3.03;;;15.00;99.90;;;;;;5098231;28;20035;-75
2022/10/18 09:20:50;;;;;;;10.38;3.85;;;15.00;99.90;;;;;;5098865;28;20366;-76
2022/10/18 09:23:21;;;;;;;8.38;3.45;;;15.30;99.90;;;;;;5099140;28;20039;-76
2022/10/18 09:26:05;;;;;;;10.70;3.08;;;15.40;99.90;;;;;;5065338;28;20032;-75
2022/10/18 09:28:46;;;;;;;8.20;3.83;;;15.10;99.90;;;;;;5100525;28;20039;-75
2022/10/18 09:31:30;;;;;;;7.70;2.92;;;15.20;99.90;;;;;;5102637;28;20103;-76
2022/10/18 09:34:11;;;;;;;10.38;3.35;;;15.50;99.90;;;;;;5102268;28;20040;-77
2022/10/18 09:36:38;;;;;;;6.75;2.75;;;15.70;99.90;;;;;;5102394;28;20047;-78
2022/10/18 09:39:13;;;;;;;9.27;3.35;;;15.70;99.90;;;;;;5085454;28;20060;-76
2022/10/18 09:42:01;;;;;;;12.60;3.45;;;15.80;99.90;;;;;;5102453;28;20261;-76
2022/10/18 09:44:36;;;;;;;12.15;2.78;;;15.90;99.90;;;;;;5086063;28;20098;-78
2022/10/18 09:47:12;;;;;;;10.15;2.70;;;16.00;99.90;;;;;;5085593;28;20040;-76
2022/10/18 09:49:44;;;;;;;10.25;2.42;;;15.70;99.90;;;;;;5102384;28;20246;-77
2022/10/18 09:52:19;;;;;;;10.00;2.60;;;16.10;99.90;;;;;;5085361;28;20051;-76
2022/10/18 09:54:59;;;;;;;11.30;2.30;;;15.80;99.90;;;;;;5085162;28;20036;-78
2022/10/18 09:57:32;;;;;;;8.80;2.03;;;16.10;99.90;;;;;;5102004;28;20107;-76
2022/10/18 10:00:00;;;;;;;7.47;2.30;;;16.60;99.90;;;;;;5084528;28;20067;-78
2022/10/18 10:02:26;;;;;;;11.02;2.55;;;16.30;99.90;;;;;;5102186;28;20311;-79
2022/10/18 10:04:55;;;;;;;10.77;2.35;;;16.70;99.90;;;;;;5085084;28;20028;-78
2022/10/18 10:07:33;;;;;;;7.43;2.42;;;16.40;99.90;;;;;;5085438;28;20028;-77
2022/10/18 10:10:12;;;;;;;11.55;2.50;;;16.60;99.90;;;;;;5084485;28;20048;-78
2022/10/18 10:12:40;;;;;;;9.02;2.20;;;16.80;99.90;;;;;;5085117;28;20039;-77
2022/10/18 10:15:17;;;;;;;8.30;2.28;;;16.70;99.90;;;;;;5085039;28;20111;-78
2022/10/18 10:17:51;;;;;;;9.07;1.65;;;16.90;99.90;;;;;;5070051;28;20115;-76
2022/10/18 10:20:27;;;;;;;7.88;1.90;;;16.70;99.90;;;;;;5085338;28;20032;-78
2022/10/18 10:22:53;;;;;;;8.85;2.05;;;16.70;99.90;;;;;;5085095;28;20031;-77
2022/10/18 10:25:37;;;;;;;7.32;1.90;;;16.10;99.90;;;;;;5085284;28;20209;-79
2022/10/18 10:28:17;;;;;;;14.25;2.10;;;16.40;99.90;;;;;;5101825;28;20050;-79
2022/10/18 10:30:43;;;;;;;9.32;1.73;;;16.30;99.90;;;;;;5101984;28;20036;-78
2022/10/18 10:33:31;;;;;;;8.48;1.83;;;16.30;99.90;;;;;;5068242;28;20043;-77
2022/10/18 10:35:59;;;;;;;8.35;1.60;;;16.50;99.90;;;;;;5084445;28;20048;-78
2022/10/18 10:38:27;;;;;;;10.95;1.90;;;16.20;99.90;;;;;;5101848;28;20032;-79
2022/10/18 10:40:53;;;;;;;7.90;1.65;;;15.90;99.90;;;;;;5083917;28;20044;-77
2022/10/18 10:43:28;;;;;;;12.55;1.90;;;15.80;99.90;;;;;;5084966;28;20036;-77
2022/10/18 10:45:57;;;;;;;;;;;15.90;99.90;;;;;;5101593;28;20133;-77
2022/10/18 10:48:24;;;;;;;11.32;2.08;;;15.60;99.90;;;;;;5101775;28;19920;-76
2022/10/18 10:51:05;;;;;;;6.85;1.55;;;15.90;99.90;;;;;;5084142;28;20043;-78
2022/10/18 10:53:49;;;;;;;6.88;1.85;;;16.20;99.90;;;;;;5084575;28;20043;-79
2022/10/18 10:56:29;;;;;;;;;;;16.40;99.90;;;;;;5084938;28;20043;-76
2022/10/18 10:59:00;;;;;;;11.85;1.92;;;16.10;99.90;;;;;;5100560;28;19935;-78
2022/10/18 11:01:31;;;;;;;9.07;1.98;;;16.00;99.90;;;;;;5084298;28;20024;-78
2022/10/18 11:04:01;;;;;;;10.32;2.15;;;16.10;99.90;;;;;;5083396;28;20028;-77
2022/10/18 11:06:32;;;;;;;8.85;1.83;;;16.20;99.90;;;;;;5101067;28;20035;-78
2022/10/18 11:09:02;;;;;;;7.18;1.85;;;16.20;99.90;;;;;;5083444;28;20035;-78
2022/10/18 11:11:38;;;;;;;6.03;1.52;;;16.10;99.90;;;;;;5067602;28;20106;-77
2022/10/18 11:14:32;;;;;;;10.45;2.15;;;15.80;99.90;;;;;;5100642;28;20036;-78
2022/10/18 11:17:33;;;;;;;10.10;2.40;;;15.50;99.90;;;;;;5083724;28;20107;-78
2022/10/18 11:20:06;;;;;;;7.22;1.85;;;15.50;99.90;;;;;;5045632;28;20044;-76
2022/10/18 11:22:39;;;;;;;9.60;2.17;;;15.40;99.90;;;;;;5077422;28;20044;-76
2022/10/18 11:25:09;;;;;;;9.50;1.60;;;15.40;99.90;;;;;;5100668;28;20040;-77
2022/10/18 11:27:48;;;;;;;10.68;1.90;;;15.50;99.90;;;;;;5067931;28;20044;-79
2022/10/18 11:30:52;;;;;;;12.40;2.10;;;15.50;99.90;;;;;;5083866;28;20317;-77
2022/10/18 11:33:24;;;;;;;7.72;1.77;;;15.40;99.90;;;;;;5083690;28;20044;-77
2022/10/18 11:36:17;;;;;;;7.82;2.00;;;15.70;99.90;;;;;;5100062;28;20035;-77
2022/10/18 11:38:56;;;;;;;8.65;1.73;;;16.00;99.90;;;;;;5082965;28;20282;-77
2022/10/18 11:41:47;;;;;;;5.13;1.40;;;15.70;99.90;;;;;;5083216;28;20523;-76
2022/10/18 11:44:47;;;;;;;5.88;1.42;;;15.50;99.90;;;;;;5065174;28;20215;-76
2022/10/18 11:47:53;;;;;;;6.68;1.42;;;15.40;99.90;;;;;;5083357;28;20038;-76
2022/10/18 11:50:39;;;;;;;10.30;1.58;;;15.20;99.90;;;;;;5094077;28;20128;-77
2022/10/18 11:53:40;;;;;;;8.48;1.98;;;15.40;99.90;;;;;;5099522;28;20046;-75
2022/10/18 11:56:27;;;;;;;10.20;1.65;;;15.60;99.90;;;;;;5061189;28;20087;-75
2022/10/18 11:59:14;;;;;;;10.35;1.90;;;15.60;99.90;;;;;;5079781;28;20121;-76
2022/10/18 12:01:48;;;;;;;7.15;1.52;;;15.70;99.90;;;;;;5099990;28;20078;-75
2022/10/18 12:04:30;;;;;;;10.00;1.60;;;15.90;99.90;;;;;;5083191;28;20106;-76
2022/10/18 12:06:57;;;;;;;11.65;2.58;;;15.70;99.90;;;;;;5082533;28;20222;-75
2022/10/18 12:09:31;;;;;;;10.38;1.75;;;15.50;99.90;;;;;;5066590;28;20032;-74
2022/10/18 12:12:44;;;;;;;5.57;1.65;;;15.40;99.90;;;;;;5082209;28;20075;-74
2022/10/18 12:15:22;;;;;;;9.43;1.67;;;15.40;99.90;;;;;;5061536;28;20036;-74
2022/10/18 12:18:02;;;;;;;6.63;1.70;;;15.40;99.90;;;;;;5061303;28;20382;-75
2022/10/18 12:20:39;;;;;;;4.43;2.15;;;15.60;99.90;;;;;;5071075;28;20082;-74
2022/10/18 12:23:35;;;;;;;7.35;1.92;;;15.50;99.90;;;;;;5077894;28;20072;-75
2022/10/18 12:26:04;;;;;;;10.23;2.38;;;15.60;99.90;;;;;;5065974;28;20037;-75
2022/10/18 12:28:48;;;;;;;4.50;1.58;;;15.60;99.90;;;;;;5062652;28;20033;-76
2022/10/18 12:31:26;;;;;;;8.75;1.83;;;15.60;99.90;;;;;;5062706;28;20032;-78
2022/10/18 12:34:08;;;;;;;8.95;1.77;;;15.80;99.90;;;;;;5061959;28;20113;-75
2022/10/18 12:36:34;;;;;;;11.48;1.70;;;15.80;99.90;;;;;;5079292;28;20093;-76
2022/10/18 12:39:04;;;;;;;6.97;1.40;;;15.70;99.90;;;;;;5078300;28;20060;-75
2022/10/18 12:41:32;;;;;;;6.72;1.55;;;15.60;99.90;;;;;;5079104;28;20052;-75
2022/10/18 12:44:06;;;;;;;6.85;1.42;;;15.70;99.90;;;;;;5061824;28;20307;-76
2022/10/18 12:46:43;;;;;;;10.57;1.77;;;15.70;99.90;;;;;;5062477;28;20214;-77
2022/10/18 12:49:11;;;;;;;6.72;1.63;;;15.70;99.90;;;;;;5078660;28;20080;-77
2022/10/18 12:51:50;;;;;;;6.78;1.48;;;15.90;99.90;;;;;;5062536;28;20028;-75
2022/10/18 12:54:28;;;;;;;6.18;1.55;;;15.90;99.90;;;;;;5079264;28;20048;-75